Time;durP1;ratioP1;P1;durP2;ratioP2;P2;SDS_P1;SDS_P2;PMS_P1;PMS_P2;Temp;Humidity;BMP_temperature;BMP_pressure;BME280_temperature;BME280_humidity;BME280_pressure;Samples;Min_cycle;Max_cycle;Signal;HPM_P1;HPM_P2
2023/10/01 07:41:38;;;;;;;7.38;2.72;;;20.00;97.80;;;;;;4934211;27;45181;-53
2023/10/01 07:44:18;;;;;;;7.18;3.08;;;20.20;98.90;;;;;;4966682;27;45419;-53
2023/10/01 07:46:56;;;;;;;8.48;3.10;;;20.30;97.80;;;;;;4883150;27;45516;-53
2023/10/01 07:49:23;;;;;;;7.80;3.05;;;20.20;98.70;;;;;;4889648;27;45489;-53
2023/10/01 07:52:10;;;;;;;6.53;3.40;;;20.30;97.30;;;;;;4894960;27;45284;-53
2023/10/01 07:55:26;;;;;;;5.97;3.30;;;20.30;97.70;;;;;;4886615;27;45219;-53
2023/10/01 07:58:45;;;;;;;9.90;3.83;;;20.20;97.00;;;;;;5039526;27;45080;-53
2023/10/01 08:06:56;;;;;;;5.97;3.47;;;20.30;97.80;;;;;;4864808;27;45344;-53
2023/10/01 08:09:26;;;;;;;9.13;4.15;;;20.30;96.80;;;;;;4879020;27;45519;-53
2023/10/01 08:13:04;;;;;;;10.15;4.40;;;20.20;97.30;;;;;;4931095;27;45514;-53
2023/10/01 08:16:17;;;;;;;7.07;4.03;;;20.10;99.60;;;;;;4921382;27;45781;-53
2023/10/01 08:19:13;;;;;;;9.02;3.70;;;20.20;96.90;;;;;;4859468;27;45037;-54
2023/10/01 08:22:13;;;;;;;10.82;4.13;;;20.20;97.30;;;;;;4875048;27;45360;-54
2023/10/01 08:25:08;;;;;;;10.90;4.38;;;20.20;97.60;;;;;;4946294;27;44966;-53
2023/10/01 08:28:26;;;;;;;7.55;3.42;;;20.20;98.30;;;;;;4873551;27;47687;-53
2023/10/01 08:35:01;;;;;;;8.30;4.00;;;20.30;97.60;;;;;;4894246;27;45272;-54
2023/10/01 08:38:00;;;;;;;5.30;2.88;;;20.30;98.00;;;;;;4874752;27;44985;-53
2023/10/01 08:40:29;;;;;;;6.82;3.28;;;20.40;97.50;;;;;;4880387;27;46089;-53
2023/10/01 08:43:04;;;;;;;7.55;3.00;;;20.40;97.30;;;;;;4869172;27;45518;-53
2023/10/01 08:45:52;;;;;;;9.65;4.47;;;20.30;97.30;;;;;;4871948;27;45238;-53
2023/10/01 08:48:43;;;;;;;7.95;3.97;;;20.30;97.40;;;;;;4879756;27;45318;-53
2023/10/01 08:51:24;;;;;;;9.50;4.05;;;20.20;97.80;;;;;;4865621;27;45886;-53
2023/10/01 08:57:17;;;;;;;6.88;3.38;;;20.30;98.10;;;;;;4860191;27;45482;-53
2023/10/01 08:59:44;;;;;;;8.77;4.20;;;20.30;98.50;;;;;;4850088;27;45418;-53
2023/10/01 09:03:10;;;;;;;10.77;3.80;;;20.30;98.70;;;;;;4862458;27;46162;-53
2023/10/01 09:06:27;;;;;;;7.72;3.80;;;20.40;99.40;;;;;;4856451;27;44982;-53
2023/10/01 09:08:55;;;;;;;6.95;3.65;;;20.40;99.90;;;;;;4847524;27;45392;-53
2023/10/01 09:11:58;;;;;;;12.90;5.38;;;20.40;99.40;;;;;;4866635;27;45241;-53
2023/10/01 09:14:47;;;;;;;9.35;3.75;;;20.30;99.20;;;;;;4889242;27;46780;-53
2023/10/01 09:20:38;;;;;;;7.82;3.47;;;20.40;98.60;;;;;;4851040;27;45130;-53
2023/10/01 09:23:56;;;;;;;8.65;3.70;;;20.50;98.70;;;;;;4849537;27;45411;-53
2023/10/01 09:27:08;;;;;;;8.88;3.80;;;20.40;99.80;;;;;;4827677;27;45644;-52
2023/10/01 09:29:48;;;;;;;7.95;3.58;;;20.30;99.90;;;;;;4855197;27;45499;-53
2023/10/01 09:33:04;;;;;;;10.10;4.57;;;20.40;99.70;;;;;;4849893;27;45192;-53
2023/10/01 09:35:59;;;;;;;7.88;3.65;;;20.40;99.60;;;;;;4839346;27;45322;-53
2023/10/01 09:39:04;;;;;;;9.07;4.13;;;20.40;99.40;;;;;;4844066;27;47305;-53
2023/10/01 09:42:03;;;;;;;8.10;3.72;;;20.40;99.60;;;;;;4857368;27;45301;-53
2023/10/01 09:45:24;;;;;;;8.98;3.97;;;20.40;99.80;;;;;;4872949;27;45324;-52
2023/10/01 09:48:48;;;;;;;5.72;3.38;;;20.40;99.60;;;;;;4845727;27;45349;-53
2023/10/01 09:51:47;;;;;;;6.57;3.78;;;20.50;99.90;;;;;;4848551;27;45314;-53
2023/10/01 09:54:29;;;;;;;8.55;3.80;;;20.50;99.80;;;;;;4854882;27;45428;-53
2023/10/01 09:57:08;;;;;;;9.48;3.95;;;20.50;99.80;;;;;;4839799;27;45437;-53
2023/10/01 09:59:49;;;;;;;10.18;4.07;;;20.50;99.90;;;;;;4834494;27;45448;-53
2023/10/01 10:02:51;;;;;;;11.80;5.55;;;20.50;99.90;;;;;;4873104;27;47012;-53
2023/10/01 10:05:55;;;;;;;8.30;4.20;;;20.40;99.90;;;;;;4867246;27;45617;-53
2023/10/01 10:08:37;;;;;;;8.77;3.97;;;20.40;99.90;;;;;;4873970;27;45168;-53
2023/10/01 10:11:24;;;;;;;14.43;5.20;;;20.40;99.90;;;;;;4868721;27;45506;-53
2023/10/01 10:13:57;;;;;;;13.63;5.00;;;20.50;99.90;;;;;;4860748;27;46199;-53
2023/10/01 10:17:07;;;;;;;13.07;4.82;;;20.40;99.90;;;;;;4883027;27;45302;-53
2023/10/01 10:20:25;;;;;;;8.57;4.40;;;20.30;99.90;;;;;;4914389;27;45529;-53
2023/10/01 10:23:29;;;;;;;8.90;4.32;;;20.40;99.90;;;;;;4865141;27;45464;-53
2023/10/01 10:26:25;;;;;;;12.65;6.03;;;20.40;99.90;;;;;;4823634;27;45696;-53
2023/10/01 10:28:55;;;;;;;12.25;5.15;;;20.40;99.90;;;;;;4868775;27;45620;-53
2023/10/01 10:31:54;;;;;;;9.48;4.47;;;20.30;99.90;;;;;;4902295;27;45136;-53
2023/10/01 10:34:36;;;;;;;9.70;4.18;;;20.40;99.90;;;;;;4861584;27;45438;-53
2023/10/01 10:37:06;;;;;;;10.65;4.55;;;20.40;99.90;;;;;;4896126;27;45720;-53
2023/10/01 10:40:13;;;;;;;10.57;4.28;;;20.40;99.90;;;;;;4887173;27;45244;-53
2023/10/01 10:43:19;;;;;;;8.05;4.05;;;20.50;99.90;;;;;;4827547;28;45601;-52
2023/10/01 10:46:00;;;;;;;8.52;4.05;;;20.50;99.90;;;;;;4806709;28;45386;-53
2023/10/01 10:48:59;;;;;;;7.45;3.67;;;20.40;99.90;;;;;;4779089;28;46229;-53
2023/10/01 10:51:47;;;;;;;12.18;5.35;;;20.50;99.90;;;;;;4883536;27;45982;-53
2023/10/01 10:54:45;;;;;;;10.30;4.60;;;20.50;99.90;;;;;;4815429;27;45268;-53
2023/10/01 10:57:48;;;;;;;12.48;4.55;;;20.50;99.90;;;;;;4876232;27;45398;-53
2023/10/01 11:00:39;;;;;;;13.35;5.28;;;20.50;99.90;;;;;;4848432;27;46014;-53
2023/10/01 11:03:57;;;;;;;8.70;3.58;;;20.50;99.90;;;;;;4872624;27;45281;-53
2023/10/01 11:07:07;;;;;;;16.13;5.57;;;20.50;99.90;;;;;;4866566;27;44979;-53
2023/10/01 11:09:34;;;;;;;13.23;5.03;;;20.50;99.90;;;;;;4842194;27;45324;-53
2023/10/01 11:12:19;;;;;;;10.55;4.82;;;20.50;99.90;;;;;;4878860;27;45713;-53
2023/10/01 11:15:23;;;;;;;8.73;4.45;;;20.40;99.90;;;;;;4876726;27;45327;-52
2023/10/01 11:18:09;;;;;;;8.18;3.92;;;20.50;99.90;;;;;;4847218;27;45470;-52
2023/10/01 11:20:45;;;;;;;9.20;3.97;;;20.50;99.90;;;;;;4893048;27;44982;-53
2023/10/01 11:23:17;;;;;;;13.10;5.97;;;20.50;99.90;;;;;;4891740;27;45535;-53
2023/10/01 11:25:47;;;;;;;12.10;5.53;;;20.50;99.90;;;;;;4873422;27;45064;-53
2023/10/01 11:28:20;;;;;;;11.45;5.05;;;20.50;99.90;;;;;;4866649;27;45446;-52
2023/10/01 11:34:21;;;;;;;13.43;5.78;;;20.50;99.90;;;;;;4797880;27;45557;-53
2023/10/01 11:37:18;;;;;;;14.32;5.43;;;20.60;99.90;;;;;;4872849;27;45236;-53
2023/10/01 11:45:48;;;;;;;12.63;5.70;;;20.60;99.90;;;;;;4828141;27;45907;-53
2023/10/01 11:48:23;;;;;;;11.65;4.80;;;20.60;99.90;;;;;;4911844;27;45584;-53
2023/10/01 11:50:52;;;;;;;16.75;6.25;;;20.60;99.90;;;;;;4883121;27;45096;-53
2023/10/01 11:53:39;;;;;;;15.77;5.93;;;20.60;99.90;;;;;;4848816;27;45687;-53
2023/10/01 11:56:11;;;;;;;11.50;5.82;;;20.70;99.90;;;;;;4880751;27;45501;-53
2023/10/01 11:58:53;;;;;;;13.45;5.13;;;20.70;99.90;;;;;;4822002;27;45173;-53
2023/10/01 12:01:38;;;;;;;14.25;6.25;;;20.70;99.90;;;;;;4909381;27;45184;-53
2023/10/01 12:04:07;;;;;;;16.42;6.10;;;20.70;99.70;;;;;;4876363;27;45493;-52
2023/10/01 12:06:48;;;;;;;12.52;6.28;;;20.80;99.90;;;;;;4866936;27;46091;-52
2023/10/01 12:09:19;;;;;;;15.70;6.32;;;20.90;99.90;;;;;;4839477;27;45518;-52
2023/10/01 12:12:08;;;;;;;16.40;7.03;;;20.90;99.90;;;;;;4895827;27;45288;-52
2023/10/01 12:14:56;;;;;;;14.52;7.03;;;20.90;99.90;;;;;;4900598;27;45196;-53
2023/10/01 12:17:25;;;;;;;14.00;6.30;;;20.70;99.90;;;;;;4877028;27;46222;-52
2023/10/01 12:20:21;;;;;;;14.20;6.45;;;20.60;99.90;;;;;;4879368;27;45298;-52
2023/10/01 12:26:31;;;;;;;11.75;5.65;;;20.50;99.90;;;;;;4870172;27;45088;-53
2023/10/01 12:29:17;;;;;;;17.38;5.88;;;20.40;99.90;;;;;;4863353;27;45321;-53
2023/10/01 12:31:45;;;;;;;16.30;6.82;;;20.50;99.90;;;;;;4871589;27;45250;-54
2023/10/01 12:34:31;;;;;;;16.05;6.75;;;20.50;99.90;;;;;;4855162;27;46046;-53
2023/10/01 12:37:35;;;;;;;15.20;6.88;;;20.50;99.90;;;;;;4887306;27;45242;-53
2023/10/01 12:40:15;;;;;;;17.35;6.55;;;20.60;99.90;;;;;;4860982;27;45171;-53
2023/10/01 12:42:47;;;;;;;15.45;7.53;;;20.60;99.90;;;;;;4879514;27;45239;-53
2023/10/01 12:45:43;;;;;;;14.10;6.45;;;20.60;99.90;;;;;;4857572;27;45153;-53
2023/10/01 12:48:11;;;;;;;15.35;7.05;;;20.60;99.90;;;;;;4877296;27;45465;-53
2023/10/01 12:51:13;;;;;;;13.70;6.10;;;20.70;98.60;;;;;;4873198;27;45536;-53
2023/10/01 12:57:09;;;;;;;17.70;6.57;;;20.70;99.90;;;;;;4883307;27;45100;-53
2023/10/01 13:00:43;;;;;;;17.13;7.32;;;20.60;99.90;;;;;;4877848;27;45350;-53
2023/10/01 13:03:16;;;;;;;20.05;8.55;;;20.70;99.10;;;;;;4868116;27;45438;-53
2023/10/01 13:05:49;;;;;;;13.25;6.38;;;20.70;99.60;;;;;;4844772;27;45450;-53
2023/10/01 13:08:41;;;;;;;12.75;6.38;;;20.70;99.90;;;;;;4893985;27;45135;-53
2023/10/01 13:17:03;;;;;;;16.95;7.65;;;20.70;99.90;;;;;;4853437;27;45289;-53
2023/10/01 13:19:45;;;;;;;16.00;7.07;;;20.70;99.90;;;;;;4838599;27;44974;-53
2023/10/01 13:22:12;;;;;;;12.07;5.63;;;20.80;99.90;;;;;;4826452;27;45136;-53
2023/10/01 13:24:54;;;;;;;14.63;7.38;;;20.70;99.90;;;;;;4868285;27;45739;-54
2023/10/01 13:27:24;;;;;;;16.15;7.63;;;20.70;99.90;;;;;;4940647;27;45232;-54
2023/10/01 13:30:24;;;;;;;22.05;9.02;;;20.60;99.90;;;;;;4836826;27;45331;-53
2023/10/01 13:33:20;;;;;;;12.30;6.05;;;20.70;98.60;;;;;;4832583;27;45573;-53
2023/10/01 13:36:23;;;;;;;14.90;7.18;;;20.70;99.90;;;;;;4864358;27;47532;-53
2023/10/01 14:08:56;;;;;;;14.15;6.47;;;20.80;99.10;;;;;;4848723;27;45388;-53
2023/10/01 14:11:27;;;;;;;26.20;9.63;;;20.90;99.10;;;;;;4849776;27;46165;-53
2023/10/01 14:14:20;;;;;;;12.18;6.10;;;21.00;96.80;;;;;;4861989;27;45495;-53
2023/10/01 14:19:32;;;;;;;18.25;8.30;;;20.90;99.90;;;;;;4828489;27;45334;-53
2023/10/01 14:22:00;;;;;;;16.63;7.63;;;20.90;98.70;;;;;;4838503;27;46345;-53
2023/10/01 14:24:46;;;;;;;13.88;6.45;;;20.90;99.40;;;;;;4854035;27;45306;-53
2023/10/01 14:27:43;;;;;;;14.90;6.90;;;20.90;99.90;;;;;;4902571;27;45057;-53
2023/10/01 14:30:25;;;;;;;17.02;7.65;;;20.80;99.90;;;;;;4860389;27;45158;-53
2023/10/01 14:36:05;;;;;;;16.83;7.30;;;20.80;99.90;;;;;;4845871;27;45461;-53
2023/10/01 14:39:10;;;;;;;13.25;6.18;;;20.80;99.90;;;;;;4901367;27;45477;-53
2023/10/01 14:42:04;;;;;;;12.52;6.55;;;20.80;99.90;;;;;;4861887;27;45416;-53
2023/10/01 14:45:04;;;;;;;13.23;6.55;;;20.90;99.90;;;;;;4873188;27;46356;-53
2023/10/01 14:47:45;;;;;;;17.17;7.65;;;20.90;99.90;;;;;;4854272;27;45186;-53
2023/10/01 14:53:41;;;;;;;11.07;6.72;;;20.90;99.90;;;;;;4888386;27;45610;-53
2023/10/01 14:56:38;;;;;;;10.65;5.05;;;20.90;99.90;;;;;;4866785;27;45379;-53
2023/10/01 14:59:05;;;;;;;12.55;6.45;;;20.90;99.90;;;;;;4828551;27;45410;-53
2023/10/01 15:01:52;;;;;;;13.40;6.75;;;20.90;99.90;;;;;;4881530;27;45483;-53
2023/10/01 15:04:47;;;;;;;17.55;8.02;;;20.90;99.90;;;;;;4885707;27;45324;-52
2023/10/01 15:07:34;;;;;;;22.95;9.30;;;20.90;99.90;;;;;;4871312;27;45987;-53
2023/10/01 15:10:05;;;;;;;14.68;7.57;;;20.90;99.90;;;;;;4850360;27;45283;-53
2023/10/01 15:13:12;;;;;;;16.00;7.30;;;20.90;99.90;;;;;;4902737;27;45204;-53
2023/10/01 15:15:56;;;;;;;12.65;6.10;;;20.90;99.80;;;;;;4866334;27;45432;-53
2023/10/01 15:18:44;;;;;;;11.55;6.20;;;20.90;99.90;;;;;;4879744;27;46870;-53
2023/10/01 15:21:31;;;;;;;15.95;7.82;;;20.90;99.90;;;;;;4851282;27;45260;-52
2023/10/01 15:24:00;;;;;;;14.00;6.65;;;20.90;99.90;;;;;;4866107;27;44756;-53
2023/10/01 15:26:43;;;;;;;12.25;6.63;;;20.90;99.90;;;;;;4887675;27;45384;-53
2023/10/01 15:29:52;;;;;;;11.25;5.57;;;20.90;99.90;;;;;;4852184;27;46492;-53
2023/10/01 15:35:22;;;;;;;13.25;6.72;;;20.90;99.90;;;;;;4840840;27;45301;-53
2023/10/01 15:37:55;;;;;;;11.50;6.00;;;20.90;99.90;;;;;;4843284;27;45412;-54
2023/10/01 15:40:26;;;;;;;9.25;4.95;;;21.00;99.90;;;;;;4883429;27;45805;-53
2023/10/01 15:43:05;;;;;;;8.93;5.00;;;20.90;99.90;;;;;;4847094;27;45288;-54
2023/10/01 15:46:11;;;;;;;15.75;7.13;;;20.90;99.90;;;;;;4870525;27;45596;-54
2023/10/01 15:49:40;;;;;;;11.43;5.93;;;20.90;99.90;;;;;;4878947;27;45407;-54
2023/10/01 15:52:16;;;;;;;10.88;5.43;;;21.00;99.90;;;;;;4863303;27;46231;-53
2023/10/01 15:54:43;;;;;;;13.27;6.90;;;21.00;99.90;;;;;;4878183;27;45279;-54
2023/10/01 15:57:33;;;;;;;11.25;5.30;;;21.00;99.90;;;;;;4941722;27;45989;-54
2023/10/01 16:00:27;;;;;;;11.90;5.43;;;21.00;99.90;;;;;;4853878;27;45224;-54
2023/10/01 16:03:15;;;;;;;12.05;5.80;;;20.90;99.90;;;;;;4885366;27;45436;-54
2023/10/01 16:06:13;;;;;;;12.32;5.57;;;20.90;99.90;;;;;;4892526;27;45346;-53
2023/10/01 16:08:42;;;;;;;11.50;5.55;;;20.90;99.90;;;;;;4874995;27;45627;-53
2023/10/01 16:11:54;;;;;;;10.82;5.53;;;20.90;99.90;;;;;;4859875;27;45478;-54
2023/10/01 16:15:02;;;;;;;7.63;4.28;;;20.90;99.90;;;;;;4859926;27;45377;-53
2023/10/01 16:24:03;;;;;;;13.70;7.47;;;20.90;99.90;;;;;;4855917;27;45596;-54
2023/10/01 16:29:27;;;;;;;11.70;6.28;;;20.90;99.90;;;;;;4850242;27;45197;-54
2023/10/01 16:38:59;;;;;;;14.68;7.05;;;20.90;99.90;;;;;;4827474;27;47471;-53
2023/10/01 16:41:47;;;;;;;11.50;5.50;;;20.90;99.90;;;;;;4878984;27;45371;-53
2023/10/01 16:44:38;;;;;;;14.95;7.18;;;20.90;99.90;;;;;;4863566;27;45394;-54
2023/10/01 16:47:36;;;;;;;15.52;6.95;;;20.90;99.90;;;;;;4895184;27;44842;-54
2023/10/01 16:54:03;;;;;;;15.02;6.75;;;20.90;99.90;;;;;;4802581;27;45758;-53
2023/10/01 16:57:11;;;;;;;14.43;7.05;;;20.90;99.90;;;;;;4844791;27;45224;-53
2023/10/01 16:59:56;;;;;;;12.23;6.38;;;20.90;99.90;;;;;;4838436;27;45534;-53
2023/10/01 17:02:41;;;;;;;12.63;6.20;;;20.90;99.90;;;;;;4865188;27;45531;-53
2023/10/01 17:05:09;;;;;;;11.20;6.28;;;20.90;99.90;;;;;;4873655;27;45366;-53
2023/10/01 17:07:44;;;;;;;10.80;5.85;;;20.90;99.90;;;;;;4893059;27;45541;-53
2023/10/01 17:10:13;;;;;;;11.52;6.15;;;20.90;99.90;;;;;;4890602;27;45190;-53
2023/10/01 17:12:56;;;;;;;10.88;6.03;;;20.90;99.90;;;;;;4874685;27;46571;-53
2023/10/01 17:19:01;;;;;;;10.57;5.38;;;20.90;99.90;;;;;;4856963;27;45567;-54
2023/10/01 17:21:44;;;;;;;18.98;6.18;;;20.90;99.90;;;;;;4867400;27;45659;-53
2023/10/01 17:24:26;;;;;;;12.43;6.40;;;20.90;99.90;;;;;;4863214;27;47585;-54
2023/10/01 17:27:17;;;;;;;13.50;6.03;;;20.90;99.90;;;;;;4874401;27;44917;-54
2023/10/01 17:30:18;;;;;;;13.40;6.30;;;20.90;99.90;;;;;;4849041;27;45555;-54
2023/10/01 17:33:10;;;;;;;14.00;7.03;;;20.90;99.90;;;;;;4861115;27;45597;-53
2023/10/01 17:36:04;;;;;;;11.13;6.63;;;20.80;99.90;;;;;;4856712;27;45418;-53
2023/10/01 17:38:31;;;;;;;14.20;6.72;;;20.80;99.90;;;;;;4864702;27;45384;-53
2023/10/01 17:43:38;;;;;;;13.25;7.15;;;20.80;99.90;;;;;;4847453;27;45463;-53
2023/10/01 17:46:31;;;;;;;15.13;7.32;;;20.80;99.90;;;;;;4883711;27;46243;-53
2023/10/01 17:48:57;;;;;;;14.88;7.38;;;20.80;99.90;;;;;;4871206;27;45469;-53
2023/10/01 17:51:55;;;;;;;14.50;7.60;;;20.80;99.90;;;;;;4906107;27;45274;-53
2023/10/01 17:54:24;;;;;;;12.15;6.50;;;20.80;99.90;;;;;;4875830;27;45058;-53
2023/10/01 17:57:26;;;;;;;13.85;7.07;;;20.80;99.90;;;;;;4923623;27;46414;-53
2023/10/01 18:00:41;;;;;;;15.70;7.25;;;20.80;99.90;;;;;;4844189;27;45057;-53
2023/10/01 18:03:31;;;;;;;14.38;6.97;;;20.80;99.90;;;;;;4845053;27;45170;-53
2023/10/01 18:06:28;;;;;;;15.80;7.95;;;20.80;99.90;;;;;;4887674;27;45442;-53
2023/10/01 18:09:45;;;;;;;15.18;7.28;;;20.80;99.90;;;;;;4848392;27;46102;-53
2023/10/01 18:12:29;;;;;;;13.68;6.80;;;20.80;99.90;;;;;;4903357;27;45820;-53
2023/10/01 18:15:04;;;;;;;13.38;6.80;;;20.80;99.90;;;;;;4860605;27;45175;-53
2023/10/01 18:17:47;;;;;;;12.48;6.70;;;20.80;99.90;;;;;;4826522;27;45816;-53
2023/10/01 18:20:34;;;;;;;13.88;7.28;;;20.80;99.90;;;;;;4858456;27;45347;-53
2023/10/01 18:23:44;;;;;;;16.65;7.57;;;20.80;99.90;;;;;;4873788;27;45321;-53
2023/10/01 18:26:13;;;;;;;14.43;7.18;;;20.80;99.90;;;;;;4830595;27;45592;-53
2023/10/01 18:28:42;;;;;;;16.90;7.57;;;20.80;99.90;;;;;;4836023;27;45451;-53
2023/10/01 18:33:54;;;;;;;14.60;7.05;;;20.80;99.90;;;;;;4833785;27;45086;-53
2023/10/01 18:39:50;;;;;;;16.45;8.30;;;20.80;99.90;;;;;;4790358;27;45548;-53
2023/10/01 18:43:17;;;;;;;15.98;8.35;;;20.80;99.90;;;;;;4842371;27;45485;-53
2023/10/01 18:46:07;;;;;;;14.27;7.65;;;20.80;99.90;;;;;;4863503;27;45195;-53
2023/10/01 18:49:05;;;;;;;14.20;7.88;;;20.80;99.90;;;;;;4915720;27;45587;-53
2023/10/01 18:52:01;;;;;;;15.02;8.00;;;20.80;99.90;;;;;;4846087;27;45111;-53
2023/10/01 18:55:08;;;;;;;12.70;6.95;;;20.80;99.90;;;;;;4866451;27;45707;-53
2023/10/01 18:57:52;;;;;;;14.57;7.32;;;20.80;99.90;;;;;;4892630;27;45279;-53
2023/10/01 19:00:36;;;;;;;15.30;7.18;;;20.80;99.90;;;;;;4843696;27;45252;-54
2023/10/01 19:03:05;;;;;;;18.55;9.07;;;20.80;99.90;;;;;;4865678;27;45324;-54
2023/10/01 19:05:33;;;;;;;15.65;8.18;;;20.70;99.90;;;;;;4868722;27;45492;-54
2023/10/01 19:08:00;;;;;;;16.45;7.90;;;20.80;99.90;;;;;;4830204;27;46009;-54
2023/10/01 19:10:45;;;;;;;18.42;9.00;;;20.70;99.90;;;;;;4899427;27;45051;-53
2023/10/01 19:13:44;;;;;;;17.83;8.65;;;20.50;99.90;;;;;;4847932;27;45583;-53
2023/10/01 19:16:26;;;;;;;21.13;8.07;;;20.40;99.90;;;;;;4882473;27;45324;-53
2023/10/01 19:19:19;;;;;;;18.38;8.52;;;20.40;99.90;;;;;;4865977;27;45259;-53
2023/10/01 19:22:24;;;;;;;14.35;6.93;;;20.40;99.90;;;;;;4896932;27;45309;-53
2023/10/01 19:24:51;;;;;;;15.07;7.22;;;20.40;99.90;;;;;;4880142;27;45303;-55
2023/10/01 19:27:32;;;;;;;15.38;7.07;;;20.40;99.90;;;;;;4880436;27;45649;-54
2023/10/01 19:30:04;;;;;;;15.60;7.10;;;20.40;99.90;;;;;;4898004;27;45332;-54
2023/10/01 19:32:36;;;;;;;12.50;6.32;;;20.50;99.90;;;;;;4868538;27;44935;-55
2023/10/01 19:35:08;;;;;;;15.80;7.30;;;20.60;99.90;;;;;;4916766;27;45787;-54
2023/10/01 19:37:49;;;;;;;13.65;6.88;;;20.60;99.90;;;;;;4859319;27;45297;-54
2023/10/01 19:40:49;;;;;;;13.93;7.30;;;20.60;99.90;;;;;;4862177;27;46008;-54
2023/10/01 19:43:48;;;;;;;15.90;7.82;;;20.70;99.90;;;;;;4872853;27;45488;-54
2023/10/01 19:46:39;;;;;;;11.40;6.10;;;20.70;99.90;;;;;;4939779;27;45209;-54
2023/10/01 19:52:33;;;;;;;14.43;7.15;;;20.70;99.90;;;;;;4858539;27;45266;-54
2023/10/01 19:55:13;;;;;;;14.90;7.00;;;20.70;99.90;;;;;;4849852;27;45043;-55
2023/10/01 19:57:52;;;;;;;14.10;6.72;;;20.70;99.90;;;;;;4874394;27;45517;-55
2023/10/01 20:01:00;;;;;;;13.82;7.38;;;20.70;99.90;;;;;;4841149;27;46613;-55
2023/10/01 20:03:44;;;;;;;17.25;7.25;;;20.70;99.90;;;;;;4824765;27;45957;-55
2023/10/01 20:09:51;;;;;;;13.65;6.88;;;20.70;99.90;;;;;;4850921;27;45356;-54
2023/10/01 20:12:19;;;;;;;12.07;6.32;;;20.70;99.90;;;;;;4859114;27;46207;-54
2023/10/01 20:14:58;;;;;;;14.93;7.50;;;20.70;99.90;;;;;;4860676;27;46027;-54
2023/10/01 20:17:27;;;;;;;11.93;6.47;;;20.70;99.90;;;;;;4850885;27;44938;-54
2023/10/01 20:20:16;;;;;;;12.63;6.72;;;20.70;99.90;;;;;;4920056;27;45154;-54
2023/10/01 20:23:01;;;;;;;14.07;7.30;;;20.70;99.90;;;;;;4862690;27;46308;-54
2023/10/01 20:25:57;;;;;;;15.68;8.02;;;20.70;99.90;;;;;;4910865;27;44967;-53
2023/10/01 20:28:33;;;;;;;15.82;7.60;;;20.70;99.90;;;;;;4846249;27;45446;-54
2023/10/01 20:31:01;;;;;;;15.27;7.55;;;20.70;99.90;;;;;;4862004;27;45281;-53
2023/10/01 20:33:32;;;;;;;14.50;7.43;;;20.70;99.90;;;;;;4872940;27;45448;-54
2023/10/01 20:36:02;;;;;;;16.10;8.10;;;20.70;99.90;;;;;;4864890;27;45341;-54
2023/10/01 20:39:02;;;;;;;16.52;7.53;;;20.70;99.90;;;;;;4870277;27;45397;-53
2023/10/01 20:41:45;;;;;;;16.80;8.30;;;20.70;99.90;;;;;;4921821;27;45160;-53
2023/10/01 20:44:34;;;;;;;14.77;7.53;;;20.70;99.90;;;;;;4860937;27;46170;-54
2023/10/01 20:50:46;;;;;;;12.63;7.00;;;20.70;99.90;;;;;;4831392;27;45316;-53
2023/10/01 20:53:27;;;;;;;16.15;7.00;;;20.70;99.90;;;;;;4934705;27;45407;-53
2023/10/01 20:56:27;;;;;;;17.75;7.88;;;20.70;99.90;;;;;;5003732;27;45333;-53
2023/10/01 20:59:22;;;;;;;18.83;8.52;;;20.70;99.90;;;;;;4917139;27;45476;-53
2023/10/01 21:01:51;;;;;;;14.70;7.88;;;20.70;99.90;;;;;;4921517;27;45101;-54
2023/10/01 21:04:24;;;;;;;13.95;6.60;;;20.70;99.90;;;;;;4904091;27;45698;-54
2023/10/01 21:07:28;;;;;;;13.27;7.25;;;20.70;99.90;;;;;;4945924;27;47260;-53
2023/10/01 21:09:57;;;;;;;13.63;7.05;;;20.70;99.90;;;;;;4943951;27;45139;-53
2023/10/01 21:15:41;;;;;;;16.48;7.95;;;20.70;99.90;;;;;;4791022;27;45322;-53
2023/10/01 21:18:11;;;;;;;17.88;8.63;;;20.70;99.90;;;;;;4877010;27;45850;-54
2023/10/01 21:21:11;;;;;;;16.17;7.53;;;20.70;99.90;;;;;;4876386;27;45475;-53
2023/10/01 21:29:03;;;;;;;14.55;6.95;;;20.70;99.90;;;;;;4850624;27;45510;-54
2023/10/01 21:31:55;;;;;;;15.15;7.82;;;20.70;99.90;;;;;;4870350;27;45066;-53
2023/10/01 21:34:33;;;;;;;13.63;6.50;;;20.70;99.90;;;;;;4871240;27;45639;-54
2023/10/01 21:37:17;;;;;;;14.05;6.43;;;20.70;99.90;;;;;;4860331;27;45277;-53
2023/10/01 21:40:06;;;;;;;15.70;7.47;;;20.70;99.90;;;;;;4912947;27;45561;-53
2023/10/01 21:42:50;;;;;;;15.15;6.78;;;20.70;99.90;;;;;;4953374;27;45239;-53
2023/10/01 21:46:02;;;;;;;13.45;7.28;;;20.70;99.90;;;;;;4907905;27;45305;-53
2023/10/01 22:01:45;;;;;;;15.27;6.90;;;20.70;99.90;;;;;;5582993;22;46737;-53
2023/10/01 22:04:14;;;;;;;15.25;7.57;;;20.70;99.90;;;;;;4748396;28;45527;-54
2023/10/01 22:07:10;;;;;;;15.75;8.45;;;20.60;99.90;;;;;;4811462;28;45604;-53
2023/10/01 22:10:24;;;;;;;17.73;8.27;;;20.60;99.90;;;;;;4819685;28;45544;-53
2023/10/01 22:12:51;;;;;;;14.95;7.90;;;20.60;99.90;;;;;;4729575;28;46695;-54
2023/10/01 22:15:53;;;;;;;16.90;7.75;;;20.60;99.90;;;;;;4731500;28;45302;-54
2023/10/01 22:18:43;;;;;;;15.20;7.28;;;20.70;99.90;;;;;;4735552;28;45467;-53
2023/10/01 22:21:32;;;;;;;16.88;8.50;;;20.60;99.90;;;;;;4768910;28;46112;-53
2023/10/01 22:24:28;;;;;;;12.10;7.32;;;20.60;99.90;;;;;;4748852;28;46527;-53
2023/10/01 22:26:56;;;;;;;16.23;8.13;;;20.60;99.90;;;;;;4763867;28;45630;-54
2023/10/01 22:29:46;;;;;;;15.50;8.35;;;20.60;99.90;;;;;;4781449;28;45294;-53
2023/10/01 22:32:42;;;;;;;16.55;8.80;;;20.60;99.90;;;;;;4742908;28;45283;-53
2023/10/01 22:35:47;;;;;;;17.23;7.75;;;20.60;99.90;;;;;;4764910;28;46208;-53
2023/10/01 22:38:39;;;;;;;14.55;7.70;;;20.60;99.90;;;;;;4772914;28;45416;-53
2023/10/01 22:41:44;;;;;;;14.65;7.00;;;20.60;99.90;;;;;;4735176;28;45385;-53
2023/10/01 22:44:23;;;;;;;15.80;7.35;;;20.70;99.90;;;;;;4759473;28;46167;-53
2023/10/01 22:47:12;;;;;;;13.13;7.00;;;20.60;99.90;;;;;;4725816;28;46022;-53
2023/10/01 22:49:42;;;;;;;14.85;7.40;;;20.70;99.90;;;;;;4741053;28;45782;-54
2023/10/01 22:52:19;;;;;;;11.95;6.18;;;20.60;99.90;;;;;;4779172;28;45330;-54
2023/10/01 22:55:07;;;;;;;14.10;6.85;;;20.60;99.90;;;;;;4751605;28;45436;-53
2023/10/01 22:58:04;;;;;;;11.35;5.80;;;20.60;99.90;;;;;;4736747;28;47493;-53
2023/10/01 23:00:32;;;;;;;12.18;6.45;;;20.60;99.90;;;;;;4750003;28;45866;-54
2023/10/01 23:03:21;;;;;;;12.95;6.13;;;20.60;99.90;;;;;;4760367;28;45697;-53
2023/10/01 23:06:24;;;;;;;13.57;6.15;;;20.60;99.90;;;;;;4738603;28;45498;-53
2023/10/01 23:08:52;;;;;;;12.73;6.20;;;20.70;99.90;;;;;;4722598;28;47869;-53
2023/10/01 23:11:54;;;;;;;12.88;6.03;;;20.60;99.90;;;;;;4738131;28;45585;-53
2023/10/01 23:17:59;;;;;;;13.68;6.28;;;20.60;99.90;;;;;;4721810;28;45240;-53
2023/10/01 23:20:32;;;;;;;11.48;5.95;;;20.60;99.90;;;;;;4733648;28;46170;-53
2023/10/01 23:23:05;;;;;;;14.05;6.75;;;20.60;99.90;;;;;;4733791;28;45439;-53
2023/10/01 23:28:36;;;;;;;15.00;6.57;;;20.60;99.90;;;;;;4748773;28;45660;-54
2023/10/01 23:33:50;;;;;;;11.52;6.32;;;20.60;99.90;;;;;;4733798;28;45230;-54
2023/10/01 23:36:39;;;;;;;12.45;6.60;;;20.60;99.90;;;;;;4779574;28;45559;-53
2023/10/01 23:39:38;;;;;;;11.00;6.05;;;20.60;99.90;;;;;;4734957;28;45620;-53
2023/10/01 23:42:07;;;;;;;12.98;6.60;;;20.60;99.90;;;;;;4735927;28;46293;-54
2023/10/01 23:47:42;;;;;;;12.80;6.55;;;20.60;99.90;;;;;;4730063;28;45560;-54
2023/10/01 23:50:29;;;;;;;12.13;6.00;;;20.60;99.90;;;;;;4739115;28;45482;-53
2023/10/01 23:53:25;;;;;;;11.13;5.75;;;20.60;99.90;;;;;;4744396;28;46958;-53
2023/10/01 23:56:13;;;;;;;10.88;5.20;;;20.60;99.90;;;;;;4740428;28;45486;-54
2023/10/01 23:59:23;;;;;;;12.00;6.05;;;20.60;99.90;;;;;;4740493;28;45673;-54
